UAL1776 KORD-KPHL
Flight info
| Callsign | UAL1776 |
|---|---|
| Flight time | N/A |
| Altitude | 37000 |
| Route | MOBLE ADIME GERBS Q186 SPYDY EWC JST BOJID4 |
| Aircraft | B738/M-SABDFGRVYL/LB2 |
Departure
| Time | 2026-05-08 01:57 |
|---|---|
| Airport | Chicago O'Hare International Airport (KORD) |
Arrival
| Time | N/A |
|---|---|
| Airport | Philadelphia International Airport (KPHL) |
| Time | Latitude | Longitude | Altitude | Speed | Heading |
|---|---|---|---|---|---|
| 2026-05-08 01:35 | 41.97985 | -87.91071 | 674 ft | 0 kts | 127° |
| 2026-05-08 01:45 | 41.97987 | -87.91074 | 674 ft | 2 kts | 127° |
| 2026-05-08 01:46 | 41.97996 | -87.91090 | 674 ft | 2 kts | 127° |
| 2026-05-08 01:46 | 41.98005 | -87.91105 | 674 ft | 0 kts | 127° |
| 2026-05-08 01:46 | 41.98010 | -87.91116 | 674 ft | 2 kts | 99° |
| 2026-05-08 01:46 | 41.98007 | -87.91135 | 674 ft | 2 kts | 50° |
| 2026-05-08 01:47 | 41.98002 | -87.91142 | 674 ft | 1 kts | 26° |
| 2026-05-08 01:47 | 41.97998 | -87.91145 | 674 ft | 0 kts | 33° |
| 2026-05-08 01:50 | 41.98008 | -87.91138 | 674 ft | 3 kts | 7° |
| 2026-05-08 01:51 | 41.98067 | -87.91138 | 674 ft | 15 kts | 0° |
| 2026-05-08 01:51 | 41.98173 | -87.91054 | 674 ft | 21 kts | 56° |
| 2026-05-08 01:51 | 41.98252 | -87.90859 | 674 ft | 26 kts | 69° |
| 2026-05-08 01:51 | 41.98284 | -87.90600 | 674 ft | 28 kts | 89° |
| 2026-05-08 01:52 | 41.98286 | -87.90345 | 674 ft | 27 kts | 90° |
| 2026-05-08 01:52 | 41.98286 | -87.90103 | 674 ft | 21 kts | 90° |
| 2026-05-08 01:52 | 41.98357 | -87.90042 | 674 ft | 14 kts | 2° |
| 2026-05-08 01:52 | 41.98458 | -87.90042 | 674 ft | 14 kts | 359° |
| 2026-05-08 01:53 | 41.98566 | -87.90044 | 674 ft | 15 kts | 0° |
| 2026-05-08 01:53 | 41.98668 | -87.90076 | 674 ft | 16 kts | 299° |
| 2026-05-08 01:53 | 41.98679 | -87.90227 | 674 ft | 16 kts | 270° |
| 2026-05-08 01:53 | 41.98679 | -87.90388 | 674 ft | 17 kts | 269° |
| 2026-05-08 01:54 | 41.98678 | -87.90559 | 674 ft | 18 kts | 270° |
| 2026-05-08 01:54 | 41.98678 | -87.90738 | 674 ft | 19 kts | 270° |
| 2026-05-08 01:54 | 41.98677 | -87.90923 | 674 ft | 20 kts | 269° |
| 2026-05-08 01:54 | 41.98677 | -87.91116 | 674 ft | 21 kts | 269° |
| 2026-05-08 01:55 | 41.98677 | -87.91318 | 674 ft | 21 kts | 270° |
| 2026-05-08 01:55 | 41.98677 | -87.91527 | 674 ft | 22 kts | 270° |
| 2026-05-08 01:55 | 41.98676 | -87.91743 | 674 ft | 23 kts | 269° |
| 2026-05-08 01:55 | 41.98676 | -87.91962 | 674 ft | 24 kts | 271° |
| 2026-05-08 01:56 | 41.98677 | -87.92193 | 674 ft | 24 kts | 269° |
| 2026-05-08 01:56 | 41.98704 | -87.92400 | 674 ft | 22 kts | 339° |
| 2026-05-08 01:56 | 41.98828 | -87.92364 | 674 ft | 18 kts | 86° |
| 2026-05-08 01:56 | 41.98828 | -87.92173 | 674 ft | 28 kts | 90° |
| 2026-05-08 01:57 | 41.98828 | -87.91680 | 674 ft | 85 kts | 90° |
| 2026-05-08 01:57 | 41.98831 | -87.90595 | 675 ft | 146 kts | 89° |
| 2026-05-08 01:57 | 41.98841 | -87.89075 | 1044 ft | 166 kts | 90° |
| 2026-05-08 01:57 | 41.98846 | -87.87532 | 1735 ft | 168 kts | 88° |
| 2026-05-08 01:58 | 41.98854 | -87.85890 | 2242 ft | 184 kts | 88° |
| 2026-05-08 01:58 | 41.98846 | -87.84154 | 2666 ft | 195 kts | 89° |
| 2026-05-08 01:58 | 41.98882 | -87.82272 | 3025 ft | 208 kts | 77° |
| 2026-05-08 01:58 | 41.99316 | -87.80384 | 3373 ft | 221 kts | 66° |
| 2026-05-08 01:59 | 41.99896 | -87.78355 | 3737 ft | 239 kts | 65° |
| 2026-05-08 01:59 | 42.00495 | -87.76253 | 4104 ft | 257 kts | 65° |
| 2026-05-08 01:59 | 42.01163 | -87.73923 | 4516 ft | 273 kts | 65° |
| 2026-05-08 01:59 | 42.01821 | -87.71490 | 5019 ft | 285 kts | 72° |
| 2026-05-08 02:00 | 42.01979 | -87.68813 | 5671 ft | 293 kts | 94° |
| 2026-05-08 02:00 | 42.01671 | -87.66099 | 6309 ft | 299 kts | 100° |
| 2026-05-08 02:00 | 42.01261 | -87.63357 | 6977 ft | 304 kts | 101° |
| 2026-05-08 02:00 | 42.00864 | -87.60561 | 7715 ft | 307 kts | 99° |
| 2026-05-08 02:01 | 42.00498 | -87.57697 | 8398 ft | 313 kts | 98° |
| 2026-05-08 02:01 | 42.00155 | -87.54787 | 9126 ft | 316 kts | 97° |
| 2026-05-08 02:01 | 41.99826 | -87.51901 | 9872 ft | 320 kts | 97° |
| 2026-05-08 02:01 | 41.99488 | -87.48908 | 10632 ft | 325 kts | 96° |
| 2026-05-08 02:02 | 41.99149 | -87.45912 | 11362 ft | 328 kts | 97° |
| 2026-05-08 02:02 | 41.98804 | -87.42893 | 12126 ft | 331 kts | 97° |
| 2026-05-08 02:02 | 41.98454 | -87.39833 | 12823 ft | 335 kts | 97° |
| 2026-05-08 02:02 | 41.98095 | -87.36710 | 13392 ft | 346 kts | 97° |
| 2026-05-08 02:03 | 41.97722 | -87.33466 | 13813 ft | 361 kts | 98° |
| 2026-05-08 02:03 | 41.97327 | -87.30048 | 14202 ft | 377 kts | 98° |
| 2026-05-08 02:03 | 41.96920 | -87.26533 | 14590 ft | 392 kts | 98° |
| 2026-05-08 02:03 | 41.96487 | -87.22805 | 14917 ft | 408 kts | 98° |
| 2026-05-08 02:04 | 41.96045 | -87.19020 | 15358 ft | 420 kts | 98° |
| 2026-05-08 02:04 | 41.95591 | -87.15147 | 16009 ft | 426 kts | 98° |
| 2026-05-08 02:04 | 41.95126 | -87.11186 | 16688 ft | 431 kts | 97° |
| 2026-05-08 02:04 | 41.94733 | -87.07172 | 17338 ft | 435 kts | 94° |
| 2026-05-08 02:05 | 41.94552 | -87.03121 | 17953 ft | 440 kts | 89° |
| 2026-05-08 02:05 | 41.94529 | -86.99026 | 18561 ft | 444 kts | 87° |
| 2026-05-08 02:05 | 41.94593 | -86.94838 | 19187 ft | 449 kts | 85° |
| 2026-05-08 02:05 | 41.94688 | -86.90636 | 19762 ft | 454 kts | 85° |
| 2026-05-08 02:06 | 41.94786 | -86.86409 | 20277 ft | 460 kts | 85° |
| 2026-05-08 02:06 | 41.94878 | -86.82070 | 20815 ft | 465 kts | 85° |
| 2026-05-08 02:06 | 41.94961 | -86.77767 | 21338 ft | 470 kts | 85° |
| 2026-05-08 02:06 | 41.95038 | -86.73323 | 21859 ft | 475 kts | 85° |
| 2026-05-08 02:07 | 41.95107 | -86.68900 | 22372 ft | 480 kts | 84° |
| 2026-05-08 02:07 | 41.95173 | -86.64381 | 22810 ft | 486 kts | 84° |
| 2026-05-08 02:07 | 41.95234 | -86.59817 | 23415 ft | 488 kts | 84° |
| 2026-05-08 02:07 | 41.95292 | -86.55250 | 23817 ft | 494 kts | 85° |
| 2026-05-08 02:08 | 41.95347 | -86.50656 | 24233 ft | 500 kts | 85° |
| 2026-05-08 02:08 | 41.95400 | -86.45962 | 24741 ft | 503 kts | 85° |
| 2026-05-08 02:08 | 41.95451 | -86.41245 | 25213 ft | 507 kts | 85° |
| 2026-05-08 02:08 | 41.95499 | -86.36571 | 25624 ft | 512 kts | 85° |
| 2026-05-08 02:09 | 41.95548 | -86.31763 | 26026 ft | 516 kts | 85° |
| 2026-05-08 02:09 | 41.95596 | -86.26938 | 26454 ft | 519 kts | 85° |
| 2026-05-08 02:09 | 41.95604 | -86.22066 | 26831 ft | 525 kts | 88° |
| 2026-05-08 02:09 | 41.95422 | -86.17180 | 27112 ft | 532 kts | 92° |
| 2026-05-08 02:10 | 41.95053 | -86.12185 | 27554 ft | 535 kts | 94° |
| 2026-05-08 02:10 | 41.94590 | -86.07232 | 27957 ft | 538 kts | 96° |
| 2026-05-08 02:10 | 41.94085 | -86.02328 | 28480 ft | 538 kts | 96° |
| 2026-05-08 02:10 | 41.93559 | -85.97347 | 28899 ft | 539 kts | 96° |
| 2026-05-08 02:11 | 41.93032 | -85.92336 | 29252 ft | 542 kts | 96° |
| 2026-05-08 02:11 | 41.92519 | -85.87373 | 29637 ft | 543 kts | 95° |
| 2026-05-08 02:11 | 41.92008 | -85.82354 | 30041 ft | 544 kts | 95° |
| 2026-05-08 02:11 | 41.91504 | -85.77316 | 30387 ft | 547 kts | 95° |
| 2026-05-08 02:12 | 41.91004 | -85.72246 | 30849 ft | 546 kts | 95° |
| 2026-05-08 02:12 | 41.90514 | -85.67232 | 31353 ft | 544 kts | 95° |
| 2026-05-08 02:12 | 41.90028 | -85.62238 | 31820 ft | 543 kts | 95° |
| 2026-05-08 02:12 | 41.89540 | -85.57224 | 32145 ft | 543 kts | 95° |
| 2026-05-08 02:13 | 41.89053 | -85.52209 | 32477 ft | 544 kts | 95° |
| 2026-05-08 02:13 | 41.88562 | -85.47182 | 32806 ft | 544 kts | 95° |
| 2026-05-08 02:13 | 41.88068 | -85.42173 | 33095 ft | 545 kts | 96° |
| 2026-05-08 02:13 | 41.87568 | -85.37119 | 33443 ft | 545 kts | 96° |
| 2026-05-08 02:14 | 41.87064 | -85.32043 | 33749 ft | 544 kts | 96° |
| 2026-05-08 02:14 | 41.86559 | -85.26985 | 34067 ft | 544 kts | 97° |
| 2026-05-08 02:14 | 41.86053 | -85.21954 | 34444 ft | 542 kts | 97° |
| 2026-05-08 02:14 | 41.85545 | -85.16930 | 34765 ft | 540 kts | 96° |
| 2026-05-08 02:15 | 41.85034 | -85.11916 | 35171 ft | 536 kts | 97° |
| 2026-05-08 02:15 | 41.84530 | -85.06987 | 35484 ft | 536 kts | 97° |
| 2026-05-08 02:15 | 41.84024 | -85.02042 | 35740 ft | 536 kts | 97° |
| 2026-05-08 02:15 | 41.83515 | -84.97079 | 36018 ft | 536 kts | 97° |
| 2026-05-08 02:16 | 41.83005 | -84.92140 | 36308 ft | 535 kts | 97° |
| 2026-05-08 02:16 | 41.82498 | -84.87234 | 36604 ft | 534 kts | 97° |
| 2026-05-08 02:16 | 41.81982 | -84.82270 | 36875 ft | 533 kts | 97° |
| 2026-05-08 02:16 | 41.81469 | -84.77345 | 36930 ft | 536 kts | 97° |
| 2026-05-08 02:17 | 41.80438 | -84.67544 | 36943 ft | 533 kts | 97° |
| 2026-05-08 02:17 | 41.79398 | -84.57724 | 36946 ft | 532 kts | 97° |
| 2026-05-08 02:18 | 41.78355 | -84.47983 | 36945 ft | 533 kts | 97° |
| 2026-05-08 02:18 | 41.77614 | -84.38174 | 36946 ft | 530 kts | 91° |
| 2026-05-08 02:19 | 41.77483 | -84.28288 | 36948 ft | 531 kts | 88° |
| 2026-05-08 02:19 | 41.77533 | -84.18436 | 36961 ft | 531 kts | 88° |
| 2026-05-08 02:20 | 41.77560 | -84.08619 | 36963 ft | 528 kts | 89° |
| 2026-05-08 02:20 | 41.77533 | -83.98771 | 36963 ft | 531 kts | 89° |
| 2026-05-08 02:21 | 41.77468 | -83.88940 | 36970 ft | 529 kts | 89° |
| 2026-05-08 02:21 | 41.77382 | -83.79054 | 36966 ft | 531 kts | 89° |
| 2026-05-08 02:22 | 41.77288 | -83.69243 | 36968 ft | 530 kts | 89° |
| 2026-05-08 02:22 | 41.77187 | -83.59352 | 36968 ft | 531 kts | 89° |
| 2026-05-08 02:23 | 41.76809 | -83.49518 | 36957 ft | 532 kts | 95° |
| 2026-05-08 02:23 | 41.75892 | -83.39719 | 36965 ft | 531 kts | 98° |
| 2026-05-08 02:24 | 41.74830 | -83.29997 | 36962 ft | 531 kts | 99° |
| 2026-05-08 02:24 | 41.73778 | -83.20197 | 36959 ft | 531 kts | 98° |
| 2026-05-08 02:25 | 41.72762 | -83.10382 | 36963 ft | 532 kts | 98° |
| 2026-05-08 02:25 | 41.71771 | -83.00616 | 36959 ft | 532 kts | 98° |
| 2026-05-08 02:26 | 41.70789 | -82.90916 | 36966 ft | 530 kts | 98° |
| 2026-05-08 02:26 | 41.69787 | -82.81094 | 36972 ft | 532 kts | 98° |
| 2026-05-08 02:27 | 41.68781 | -82.71307 | 36963 ft | 531 kts | 98° |
| 2026-05-08 02:27 | 41.67773 | -82.61561 | 36967 ft | 531 kts | 98° |
| 2026-05-08 02:28 | 41.66746 | -82.51743 | 36962 ft | 532 kts | 98° |
| 2026-05-08 02:28 | 41.65721 | -82.42005 | 36974 ft | 531 kts | 98° |
| 2026-05-08 02:29 | 41.64682 | -82.32233 | 36964 ft | 531 kts | 99° |
| 2026-05-08 02:29 | 41.63638 | -82.22514 | 36974 ft | 532 kts | 99° |
| 2026-05-08 02:30 | 41.62583 | -82.12756 | 36973 ft | 534 kts | 99° |
| 2026-05-08 02:30 | 41.61516 | -82.02985 | 36981 ft | 534 kts | 99° |
| 2026-05-08 02:31 | 41.60436 | -81.93156 | 36972 ft | 534 kts | 99° |
| 2026-05-08 02:31 | 41.59356 | -81.83416 | 36965 ft | 534 kts | 99° |
| 2026-05-08 02:32 | 41.58257 | -81.73604 | 36966 ft | 534 kts | 99° |
| 2026-05-08 02:32 | 41.57161 | -81.63881 | 36968 ft | 534 kts | 99° |
| 2026-05-08 02:33 | 41.56047 | -81.54061 | 36965 ft | 535 kts | 99° |
| 2026-05-08 02:33 | 41.54568 | -81.44409 | 36973 ft | 533 kts | 110° |
| 2026-05-08 02:34 | 41.53212 | -81.39896 | 36960 ft | 528 kts | 121° |
| 2026-05-08 02:34 | 41.51333 | -81.35705 | 36967 ft | 523 kts | 129° |
| 2026-05-08 02:34 | 41.47028 | -81.27988 | 36963 ft | 519 kts | 135° |
| 2026-05-08 02:35 | 41.42542 | -81.20557 | 36968 ft | 519 kts | 136° |
| 2026-05-08 02:35 | 41.38011 | -81.13096 | 36975 ft | 517 kts | 136° |
| 2026-05-08 02:36 | 41.33524 | -81.05659 | 36984 ft | 520 kts | 135° |
| 2026-05-08 02:36 | 41.29022 | -80.98162 | 36987 ft | 522 kts | 135° |
| 2026-05-08 02:37 | 41.24516 | -80.90640 | 36983 ft | 522 kts | 135° |
| 2026-05-08 02:37 | 41.19990 | -80.83080 | 36977 ft | 521 kts | 135° |
| 2026-05-08 02:38 | 41.15506 | -80.75610 | 36979 ft | 524 kts | 135° |
| 2026-05-08 02:38 | 41.10992 | -80.68111 | 36980 ft | 520 kts | 135° |
| 2026-05-08 02:39 | 41.06473 | -80.60624 | 36979 ft | 523 kts | 135° |
| 2026-05-08 02:39 | 41.01941 | -80.53140 | 36991 ft | 525 kts | 135° |
| 2026-05-08 02:40 | 40.97371 | -80.45612 | 36985 ft | 523 kts | 135° |
| 2026-05-08 02:40 | 40.92820 | -80.38121 | 37005 ft | 525 kts | 135° |
| 2026-05-08 02:41 | 40.88248 | -80.30622 | 36997 ft | 523 kts | 136° |
| 2026-05-08 02:41 | 40.83834 | -80.23044 | 36994 ft | 528 kts | 131° |
| 2026-05-08 02:42 | 40.80038 | -80.14703 | 37001 ft | 533 kts | 123° |
| 2026-05-08 02:42 | 40.76728 | -80.05937 | 36993 ft | 538 kts | 120° |